createdAt,value
2016-08-24T00:00:44.433Z,19.47
2016-08-24T00:01:57.425Z,19.49
2016-08-24T00:03:10.412Z,19.45
2016-08-24T00:04:23.405Z,19.46
2016-08-24T00:05:36.392Z,19.43
2016-08-24T00:06:49.381Z,19.46
2016-08-24T00:08:02.373Z,19.42
2016-08-24T00:09:15.363Z,19.42
2016-08-24T00:10:28.343Z,19.4
2016-08-24T00:11:41.527Z,19.42
2016-08-24T00:12:54.511Z,19.42
2016-08-24T00:14:07.692Z,19.23
2016-08-24T00:15:20.670Z,19.23
2016-08-24T00:16:33.643Z,19.27
2016-08-24T00:17:46.631Z,19.32
2016-08-24T00:18:59.814Z,19.35
2016-08-24T00:20:12.803Z,19.32
2016-08-24T00:21:25.784Z,19.28
2016-08-24T00:22:38.981Z,19.28
2016-08-24T00:23:52.171Z,19.25
2016-08-24T00:25:05.152Z,19.23
2016-08-24T00:26:18.137Z,19.16
2016-08-24T00:27:31.122Z,19.16
2016-08-24T00:28:44.104Z,19.16
2016-08-24T00:29:57.093Z,19.13
2016-08-24T00:31:10.069Z,19.15
2016-08-24T00:32:23.074Z,19.13
2016-08-24T00:33:36.118Z,19.09
2016-08-24T00:34:49.111Z,19.1
2016-08-24T00:36:02.100Z,19.1
2016-08-24T00:37:15.085Z,19.16
2016-08-24T00:38:28.066Z,19.1
2016-08-24T00:39:41.251Z,19.06
2016-08-24T00:40:54.236Z,19.06
2016-08-24T00:42:07.216Z,19.06
2016-08-24T00:43:20.196Z,19.07
2016-08-24T00:44:33.176Z,18.96
2016-08-24T00:45:46.164Z,18.99
2016-08-24T00:46:59.160Z,18.99
2016-08-24T00:48:12.144Z,18.99
2016-08-24T00:49:25.136Z,19.07
2016-08-24T00:50:38.118Z,18.96
2016-08-24T00:51:51.101Z,18.97
2016-08-24T00:53:04.091Z,18.96
2016-08-24T00:54:17.067Z,18.99
2016-08-24T00:55:30.049Z,19.02
2016-08-24T00:56:43.237Z,18.93
2016-08-24T00:57:56.227Z,18.91
2016-08-24T00:59:09.628Z,18.93
2016-08-24T01:00:22.609Z,18.96
2016-08-24T01:01:35.585Z,18.94
2016-08-24T01:02:48.571Z,18.91
2016-08-24T01:04:01.555Z,18.94
2016-08-24T01:05:14.530Z,18.91
2016-08-24T01:06:27.512Z,18.86
2016-08-24T01:07:40.496Z,18.76
2016-08-24T01:08:53.491Z,18.89
2016-08-24T01:10:06.477Z,18.84
2016-08-24T01:11:19.456Z,18.81
2016-08-24T01:12:32.448Z,18.82
2016-08-24T01:13:45.440Z,18.81
2016-08-24T01:14:58.445Z,18.79
2016-08-24T01:16:11.624Z,18.75
2016-08-24T01:17:24.803Z,18.75
2016-08-24T01:18:37.795Z,18.75
2016-08-24T01:19:50.977Z,18.79
2016-08-24T01:21:04.171Z,18.82
2016-08-24T01:22:17.361Z,18.72
2016-08-24T01:23:30.347Z,18.78
2016-08-24T01:24:43.339Z,18.71
2016-08-24T01:25:56.519Z,18.72
2016-08-24T01:27:09.507Z,18.69
2016-08-24T01:28:22.490Z,18.69
2016-08-24T01:29:35.472Z,18.74
2016-08-24T01:30:48.457Z,18.72
2016-08-24T01:32:01.644Z,18.71
2016-08-24T01:33:14.629Z,18.66
2016-08-24T01:34:27.656Z,18.72
2016-08-24T01:35:40.667Z,18.66
2016-08-24T01:36:53.650Z,18.63
2016-08-24T01:38:06.632Z,18.61
2016-08-24T01:39:19.608Z,18.61
2016-08-24T01:40:32.795Z,18.6
2016-08-24T01:41:45.791Z,18.61
2016-08-24T01:42:58.782Z,18.65
2016-08-24T01:44:11.753Z,18.68
2016-08-24T01:45:24.736Z,18.63
2016-08-24T01:46:37.926Z,18.57
2016-08-24T01:47:50.913Z,18.53
2016-08-24T01:49:03.890Z,18.5
2016-08-24T01:50:16.871Z,18.5
2016-08-24T01:51:30.044Z,18.54
2016-08-24T01:52:43.229Z,18.49
2016-08-24T01:53:56.423Z,18.49
2016-08-24T01:55:09.420Z,18.39
2016-08-24T01:56:22.413Z,18.44
2016-08-24T01:57:35.596Z,18.45
2016-08-24T01:58:48.601Z,18.39
2016-08-24T02:00:01.587Z,18.35
2016-08-24T02:01:14.565Z,18.36
2016-08-24T02:02:27.752Z,18.27
2016-08-24T02:03:40.745Z,18.36
2016-08-24T02:04:53.931Z,18.35
2016-08-24T02:06:06.916Z,18.2
2016-08-24T02:07:19.904Z,18.19
2016-08-24T02:08:32.885Z,18.24
2016-08-24T02:09:46.065Z,18.23
2016-08-24T02:10:59.052Z,18.2
2016-08-24T02:12:12.229Z,18.14
2016-08-24T02:13:25.217Z,18.14
2016-08-24T02:14:38.389Z,18.14
2016-08-24T02:15:51.572Z,18.11
2016-08-24T02:17:04.556Z,18.11
2016-08-24T02:18:17.740Z,18.05
2016-08-24T02:19:30.727Z,18.06
2016-08-24T02:20:43.700Z,18.02
2016-08-24T02:21:56.687Z,18.05
2016-08-24T02:23:09.679Z,18.1
2016-08-24T02:24:22.661Z,18.11
2016-08-24T02:25:35.843Z,18.1
2016-08-24T02:26:48.834Z,18.11
2016-08-24T02:28:01.825Z,18.06
2016-08-24T02:29:14.821Z,18.02
2016-08-24T02:30:27.800Z,17.99
2016-08-24T02:31:40.786Z,17.99
2016-08-24T02:32:53.768Z,18.02
2016-08-24T02:34:06.759Z,17.95
2016-08-24T02:35:19.789Z,18.01
2016-08-24T02:36:32.775Z,17.98
2016-08-24T02:37:45.755Z,17.98
2016-08-24T02:38:58.737Z,17.96
2016-08-24T02:40:11.919Z,18.01
2016-08-24T02:41:25.101Z,17.84
2016-08-24T02:42:38.074Z,17.9
2016-08-24T02:43:51.062Z,17.9
2016-08-24T02:45:04.050Z,17.8
2016-08-24T02:46:17.035Z,17.83
2016-08-24T02:47:30.016Z,17.87
2016-08-24T02:48:43.010Z,17.79
2016-08-24T02:49:56.202Z,17.77
2016-08-24T02:51:09.203Z,17.8
2016-08-24T02:52:22.180Z,17.77
2016-08-24T02:53:35.164Z,17.76
2016-08-24T02:54:48.141Z,17.69
2016-08-24T02:56:01.121Z,17.68
2016-08-24T02:57:14.113Z,17.73
2016-08-24T02:58:27.316Z,17.71
2016-08-24T02:59:40.299Z,17.8
2016-08-24T03:00:53.276Z,17.71
2016-08-24T03:02:06.253Z,17.77
2016-08-24T03:03:19.241Z,17.71
2016-08-24T03:04:32.217Z,17.74
2016-08-24T03:05:45.394Z,17.63
2016-08-24T03:06:58.378Z,17.62
2016-08-24T03:08:11.558Z,17.66
2016-08-24T03:09:24.551Z,17.58
2016-08-24T03:10:37.531Z,17.54
2016-08-24T03:11:50.515Z,17.63
2016-08-24T03:13:03.508Z,17.57
2016-08-24T03:14:16.486Z,17.6
2016-08-24T03:15:29.473Z,17.54
2016-08-24T03:16:42.453Z,17.47
2016-08-24T03:17:55.425Z,17.49
2016-08-24T03:19:08.420Z,17.43
2016-08-24T03:20:21.403Z,17.46
2016-08-24T03:21:34.389Z,17.5
2016-08-24T03:22:47.567Z,17.45
2016-08-24T03:24:00.756Z,17.4
2016-08-24T03:25:13.747Z,17.42
2016-08-24T03:26:26.730Z,17.42
2016-08-24T03:27:39.711Z,17.42
2016-08-24T03:28:52.703Z,17.43
2016-08-24T03:30:05.702Z,17.45
2016-08-24T03:31:18.691Z,17.45
2016-08-24T03:32:31.668Z,17.43
2016-08-24T03:33:44.650Z,17.38
2016-08-24T03:34:57.631Z,17.42
2016-08-24T03:36:10.662Z,17.32
2016-08-24T03:37:23.639Z,17.35
2016-08-24T03:38:36.615Z,17.38
2016-08-24T03:39:49.602Z,17.31
2016-08-24T03:41:02.597Z,17.3
2016-08-24T03:42:15.579Z,17.27
2016-08-24T03:43:28.572Z,17.3
2016-08-24T03:44:41.547Z,17.22
2016-08-24T03:45:54.523Z,17.24
2016-08-24T03:47:07.510Z,17.28
2016-08-24T03:48:20.503Z,17.25
2016-08-24T03:49:33.485Z,17.12
2016-08-24T03:50:46.471Z,17.24
2016-08-24T03:51:59.457Z,17.21
2016-08-24T03:53:12.435Z,17.21
2016-08-24T03:54:25.441Z,17.15
2016-08-24T03:55:38.430Z,17.05
2016-08-24T03:56:51.421Z,17.12
2016-08-24T03:58:04.404Z,17.12
2016-08-24T03:59:17.586Z,17.12
2016-08-24T04:00:30.564Z,17.09
2016-08-24T04:01:43.551Z,17.13
2016-08-24T04:02:56.539Z,17.1
2016-08-24T04:04:09.522Z,17
2016-08-24T04:05:22.497Z,17.07
2016-08-24T04:06:35.477Z,17.06
2016-08-24T04:07:48.467Z,16.99
2016-08-24T04:09:01.454Z,17.02
2016-08-24T04:10:14.452Z,16.97
2016-08-24T04:11:27.430Z,16.92
2016-08-24T04:12:40.614Z,16.9
2016-08-24T04:13:53.595Z,16.88
2016-08-24T04:15:06.578Z,16.77
2016-08-24T04:16:19.571Z,16.69
2016-08-24T04:17:32.552Z,16.73
2016-08-24T04:18:45.531Z,16.63
2016-08-24T04:19:58.511Z,16.58
2016-08-24T04:21:11.699Z,16.7
2016-08-24T04:22:24.691Z,16.72
2016-08-24T04:23:37.671Z,16.69
2016-08-24T04:24:50.657Z,16.67
2016-08-24T04:26:03.639Z,16.7
2016-08-24T04:27:16.829Z,16.72
2016-08-24T04:28:29.817Z,16.69
2016-08-24T04:29:43.005Z,16.63
2016-08-24T04:30:56.197Z,16.63
2016-08-24T04:32:09.183Z,16.66
2016-08-24T04:33:22.166Z,16.7
2016-08-24T04:34:35.149Z,16.74
2016-08-24T04:35:48.133Z,16.67
2016-08-24T04:37:01.164Z,16.7
2016-08-24T04:38:14.339Z,16.7
2016-08-24T04:39:27.515Z,16.7
2016-08-24T04:40:40.493Z,16.74
2016-08-24T04:41:53.471Z,16.72
2016-08-24T04:43:06.452Z,16.72
2016-08-24T04:44:19.453Z,16.7
2016-08-24T04:45:32.637Z,16.7
2016-08-24T04:46:45.637Z,16.67
2016-08-24T04:47:58.822Z,16.72
2016-08-24T04:49:11.826Z,16.72
2016-08-24T04:50:24.805Z,16.7
2016-08-24T04:51:37.788Z,16.73
2016-08-24T04:52:50.764Z,16.67
2016-08-24T04:54:03.736Z,16.69
2016-08-24T04:55:16.711Z,16.7
2016-08-24T04:56:29.894Z,16.67
2016-08-24T04:57:42.871Z,16.74
2016-08-24T04:58:55.862Z,16.65
2016-08-24T05:00:08.849Z,16.76
2016-08-24T05:01:21.839Z,16.72
2016-08-24T05:02:35.025Z,16.65
2016-08-24T05:03:48.005Z,16.72
2016-08-24T05:05:01.184Z,16.69
2016-08-24T05:06:14.165Z,16.73
2016-08-24T05:07:27.147Z,16.8
2016-08-24T05:08:40.130Z,16.77
2016-08-24T05:09:53.310Z,16.81
2016-08-24T05:11:06.286Z,16.85
2016-08-24T05:12:19.269Z,16.9
2016-08-24T05:13:32.264Z,16.85
2016-08-24T05:14:45.262Z,16.88
2016-08-24T05:15:58.248Z,16.91
2016-08-24T05:17:11.448Z,16.91
2016-08-24T05:18:24.445Z,16.94
2016-08-24T05:19:37.440Z,16.85
2016-08-24T05:20:50.630Z,17.02
2016-08-24T05:22:03.622Z,16.91
2016-08-24T05:23:16.608Z,16.95
2016-08-24T05:24:29.590Z,17
2016-08-24T05:25:42.571Z,17.05
2016-08-24T05:26:55.556Z,17.05
2016-08-24T05:28:08.741Z,17.05
2016-08-24T05:29:21.726Z,17.07
2016-08-24T05:30:34.711Z,17.09
2016-08-24T05:31:47.888Z,17.12
2016-08-24T05:33:01.070Z,17.13
2016-08-24T05:34:14.046Z,17.12
2016-08-24T05:35:27.225Z,17.12
2016-08-24T05:36:40.203Z,17.18
2016-08-24T05:37:53.241Z,17.22
2016-08-24T05:39:06.228Z,17.27
2016-08-24T05:40:19.407Z,17.22
2016-08-24T05:41:32.392Z,17.24
2016-08-24T05:42:45.361Z,17.21
2016-08-24T05:43:58.340Z,17.32
2016-08-24T05:45:11.336Z,17.32
2016-08-24T05:46:24.324Z,17.39
2016-08-24T05:47:37.300Z,17.31
2016-08-24T05:48:50.284Z,17.36
2016-08-24T05:50:03.264Z,17.43
2016-08-24T05:51:16.243Z,17.46
2016-08-24T05:52:29.224Z,17.57
2016-08-24T05:53:42.221Z,17.52
2016-08-24T05:54:55.196Z,17.54
2016-08-24T05:56:08.173Z,17.57
2016-08-24T05:57:21.159Z,17.52
2016-08-24T05:58:34.140Z,17.52
2016-08-24T05:59:47.119Z,17.77
2016-08-24T06:01:00.097Z,17.68
2016-08-24T06:02:13.100Z,17.68
2016-08-24T06:03:26.095Z,17.81
2016-08-24T06:04:39.084Z,17.8
2016-08-24T06:05:52.062Z,17.84
2016-08-24T06:07:05.081Z,17.87
2016-08-24T06:08:18.256Z,17.98
2016-08-24T06:09:32.720Z,17.92
2016-08-24T06:10:50.626Z,18.02
2016-08-24T06:12:03.915Z,18.03
2016-08-24T06:13:16.898Z,18.1
2016-08-24T06:14:29.882Z,18.1
2016-08-24T06:15:42.894Z,18.13
2016-08-24T06:16:55.885Z,18.16
2016-08-24T06:18:08.866Z,18.17
2016-08-24T06:19:22.268Z,18.17
2016-08-24T06:20:35.802Z,18.19
2016-08-24T06:21:49.104Z,18.27
2016-08-24T06:23:02.142Z,18.39
2016-08-24T06:24:15.401Z,18.27
2016-08-24T06:25:29.226Z,18.34
2016-08-24T06:26:42.843Z,18.47
2016-08-24T06:27:56.495Z,18.51
2016-08-24T06:29:10.195Z,18.56
2016-08-24T06:30:23.187Z,18.53
2016-08-24T06:31:36.171Z,18.59
2016-08-24T06:32:49.158Z,18.65
2016-08-24T06:34:02.839Z,18.76
2016-08-24T06:35:16.670Z,18.78
2016-08-24T06:36:29.966Z,18.87
2016-08-24T06:37:42.989Z,18.94
2016-08-24T06:38:56.026Z,18.99
2016-08-24T06:40:09.010Z,19.35
2016-08-24T06:41:22.519Z,19.93
2016-08-24T06:42:36.700Z,20.72
2016-08-24T06:43:49.703Z,21.41
2016-08-24T06:45:02.698Z,22.11
2016-08-24T06:46:15.686Z,22.85
2016-08-24T06:47:30.330Z,23.52
2016-08-24T06:48:44.737Z,23.93
2016-08-24T06:49:57.739Z,24.46
2016-08-24T06:51:10.955Z,24.92
2016-08-24T06:52:23.975Z,25.32
2016-08-24T06:53:36.976Z,25.54
2016-08-24T06:54:50.167Z,25.99
2016-08-24T06:56:03.166Z,26.3
2016-08-24T06:57:16.226Z,26.45
2016-08-24T06:58:29.451Z,26.67
2016-08-24T06:59:42.449Z,26.81
2016-08-24T07:00:55.513Z,26.86
2016-08-24T07:02:08.532Z,26.91
2016-08-24T07:03:21.543Z,26.97
2016-08-24T07:04:34.727Z,27.15
2016-08-24T07:05:47.953Z,27.55
2016-08-24T07:07:00.962Z,27.93
2016-08-24T07:08:13.963Z,28.16
2016-08-24T07:09:29.047Z,28.3
2016-08-24T07:10:42.050Z,28.64
2016-08-24T07:11:55.047Z,28.78
2016-08-24T07:13:08.051Z,28.85
2016-08-24T07:14:21.069Z,29.03
2016-08-24T07:15:34.284Z,29.45
2016-08-24T07:16:47.294Z,29.79
2016-08-24T07:18:00.494Z,30.13
2016-08-24T07:19:13.497Z,30.24
2016-08-24T07:20:26.519Z,30.14
2016-08-24T07:21:39.513Z,30.02
2016-08-24T07:22:52.715Z,30
2016-08-24T07:24:05.726Z,30.04
2016-08-24T07:25:18.736Z,30.1
2016-08-24T07:26:31.749Z,30.04
2016-08-24T07:27:44.750Z,29.97
2016-08-24T07:28:57.746Z,29.75
2016-08-24T07:30:10.752Z,29.67
2016-08-24T07:31:23.752Z,29.47
2016-08-24T07:32:36.745Z,29.55
2016-08-24T07:33:49.759Z,29.82
2016-08-24T07:35:02.759Z,30.04
2016-08-24T07:36:15.763Z,30.24
2016-08-24T07:37:28.779Z,30.25
2016-08-24T07:38:41.832Z,30.11
2016-08-24T07:39:54.844Z,30.07
2016-08-24T07:41:07.852Z,30.13
2016-08-24T07:42:20.855Z,30.29
2016-08-24T07:43:33.868Z,30.31
2016-08-24T07:44:46.885Z,30.26
2016-08-24T07:45:59.887Z,30.42
2016-08-24T07:47:12.897Z,30.77
2016-08-24T07:48:25.903Z,30.82
2016-08-24T07:49:38.898Z,30.97
2016-08-24T07:50:51.903Z,31.26
2016-08-24T07:52:04.915Z,31.3
2016-08-24T07:53:17.917Z,31.47
2016-08-24T07:54:30.904Z,31.75
2016-08-24T07:55:43.906Z,31.8
2016-08-24T07:56:56.912Z,31.97
2016-08-24T07:58:09.908Z,32.23
2016-08-24T07:59:22.911Z,32.54
2016-08-24T08:00:35.929Z,32.86
2016-08-24T08:01:48.938Z,33.23
2016-08-24T08:03:02.146Z,33.46
2016-08-24T08:04:15.349Z,33.62
2016-08-24T08:05:28.361Z,33.77
2016-08-24T08:06:41.370Z,33.78
2016-08-24T08:07:54.379Z,33.61
2016-08-24T08:09:07.581Z,33.39
2016-08-24T08:10:20.595Z,33.26
2016-08-24T08:11:33.594Z,33.31
2016-08-24T08:12:46.802Z,33.18
2016-08-24T08:14:00.002Z,33.29
2016-08-24T08:15:13.012Z,33.2
2016-08-24T08:16:26.013Z,33.08
2016-08-24T08:17:39.019Z,32.93
2016-08-24T08:18:52.027Z,32.9
2016-08-24T08:20:05.029Z,32.64
2016-08-24T08:21:18.239Z,32.69
2016-08-24T08:22:31.240Z,32.86
2016-08-24T08:23:44.250Z,33.18
2016-08-24T08:24:57.260Z,33.52
2016-08-24T08:26:10.469Z,33.8
2016-08-24T08:27:23.672Z,34.12
2016-08-24T08:28:36.701Z,34.45
2016-08-24T08:29:49.721Z,34.81
2016-08-24T08:31:02.728Z,34.81
2016-08-24T08:32:15.934Z,35.01
2016-08-24T08:33:28.935Z,34.89
2016-08-24T08:34:42.145Z,34.96
2016-08-24T08:35:55.165Z,35.15
2016-08-24T08:37:08.172Z,35.08
2016-08-24T08:38:21.182Z,35.01
2016-08-24T08:39:34.429Z,35.01
2016-08-24T08:40:47.440Z,34.93
2016-08-24T08:42:00.443Z,35.02
2016-08-24T08:43:13.455Z,35.01
2016-08-24T08:44:26.469Z,34.84
2016-08-24T08:45:39.461Z,34.79
2016-08-24T08:46:52.459Z,34.89
2016-08-24T08:48:05.463Z,35.04
2016-08-24T08:49:18.485Z,35.12
2016-08-24T08:50:31.704Z,35.4
2016-08-24T08:51:44.916Z,35.77
2016-08-24T08:52:57.921Z,36.12
2016-08-24T08:54:10.935Z,36.3
2016-08-24T08:55:24.157Z,36.24
2016-08-24T08:56:37.165Z,36.04
2016-08-24T08:57:50.168Z,36.05
2016-08-24T08:59:03.617Z,35.79
2016-08-24T09:00:16.634Z,35.87
2016-08-24T09:01:29.640Z,35.72
2016-08-24T09:02:42.653Z,35.79
2016-08-24T09:03:55.687Z,35.72
2016-08-24T09:05:08.696Z,35.77
2016-08-24T09:06:21.902Z,35.74
2016-08-24T09:07:34.917Z,35.74
2016-08-24T09:08:48.131Z,35.55
2016-08-24T09:10:01.150Z,35.64
2016-08-24T09:11:14.156Z,35.77
2016-08-24T09:12:27.156Z,35.79
2016-08-24T09:13:40.359Z,35.71
2016-08-24T09:14:53.379Z,36.01
2016-08-24T09:16:06.397Z,35.9
2016-08-24T09:17:19.418Z,35.67
2016-08-24T09:18:32.643Z,35.83
2016-08-24T09:19:46.046Z,35.92
2016-08-24T09:20:59.265Z,35.96
2016-08-24T09:22:12.275Z,36.18
2016-08-24T09:23:25.283Z,36.32
2016-08-24T09:24:38.294Z,36.15
2016-08-24T09:25:51.303Z,36.09
2016-08-24T09:27:04.314Z,36.26
2016-08-24T09:28:17.327Z,36.08
2016-08-24T09:29:30.352Z,36.17
2016-08-24T09:30:43.556Z,35.95
2016-08-24T09:31:56.558Z,36.09
2016-08-24T09:33:09.563Z,36.17
2016-08-24T09:34:22.804Z,36.17
2016-08-24T09:35:36.010Z,36.39
2016-08-24T09:36:49.022Z,36.47
2016-08-24T09:38:02.026Z,36.61
2016-08-24T09:39:15.031Z,36.68
2016-08-24T09:40:28.290Z,36.62
2016-08-24T09:41:41.502Z,36.86
2016-08-24T09:42:54.510Z,37.07
2016-08-24T09:44:07.714Z,37.18
2016-08-24T09:45:20.724Z,37.44
2016-08-24T09:46:33.734Z,37.69
2016-08-24T09:47:46.750Z,37.66
2016-08-24T09:48:59.786Z,37.42
2016-08-24T09:50:12.790Z,37.08
2016-08-24T09:51:25.997Z,37.18
2016-08-24T09:52:39.010Z,37.07
2016-08-24T09:53:52.214Z,37.07
2016-08-24T09:55:05.237Z,37.17
2016-08-24T09:56:18.246Z,37.22
2016-08-24T09:57:31.254Z,37.45
2016-08-24T09:58:44.269Z,37.62
2016-08-24T09:59:57.283Z,37.59
2016-08-24T10:01:10.290Z,37.76
2016-08-24T10:02:23.295Z,37.76
2016-08-24T10:03:36.303Z,38.02
2016-08-24T10:04:49.322Z,38.05
2016-08-24T10:06:02.317Z,38.06
2016-08-24T10:07:15.328Z,38.21
2016-08-24T10:08:28.337Z,38.28
2016-08-24T10:09:41.357Z,38.36
2016-08-24T10:10:54.357Z,38.22
2016-08-24T10:12:07.571Z,38.15
2016-08-24T10:13:20.772Z,38.03
2016-08-24T10:14:33.790Z,38.17
2016-08-24T10:15:46.794Z,38.08
2016-08-24T10:16:59.803Z,37.96
2016-08-24T10:18:12.813Z,37.91
2016-08-24T10:19:25.822Z,37.81
2016-08-24T10:20:38.833Z,37.9
2016-08-24T10:21:51.837Z,37.87
2016-08-24T10:23:04.845Z,38.13
2016-08-24T10:24:17.861Z,38.24
2016-08-24T10:25:30.875Z,38.36
2016-08-24T10:26:44.082Z,38.35
2016-08-24T10:27:57.314Z,38.27
2016-08-24T10:29:10.336Z,38.22
2016-08-24T10:30:23.342Z,38.33
2016-08-24T10:31:36.362Z,38.46
2016-08-24T10:32:49.570Z,38.36
2016-08-24T10:34:02.568Z,38.36
2016-08-24T10:35:15.569Z,38.13
2016-08-24T10:36:28.571Z,37.98
2016-08-24T10:37:41.581Z,38.06
2016-08-24T10:38:54.790Z,37.98
2016-08-24T10:40:07.800Z,37.84
2016-08-24T10:41:20.860Z,37.84
2016-08-24T10:42:34.081Z,38.02
2016-08-24T10:43:47.097Z,38.21
2016-08-24T10:45:00.103Z,38.21
2016-08-24T10:46:13.113Z,38
2016-08-24T10:47:26.115Z,38.02
2016-08-24T10:48:39.134Z,38.02
2016-08-24T10:49:52.154Z,38.08
2016-08-24T10:51:05.162Z,38.09
2016-08-24T10:52:18.168Z,37.75
2016-08-24T10:53:31.388Z,37.96
2016-08-24T10:54:44.400Z,37.99
2016-08-24T10:55:57.603Z,38.1
2016-08-24T10:57:10.615Z,38.1
2016-08-24T10:58:23.623Z,38.18
2016-08-24T10:59:36.829Z,38.25
2016-08-24T11:00:50.032Z,38.02
2016-08-24T11:02:03.050Z,37.94
2016-08-24T11:03:16.053Z,38.08
2016-08-24T11:04:29.064Z,38.22
2016-08-24T11:05:42.095Z,38.31
2016-08-24T11:06:55.118Z,38.25
2016-08-24T11:08:08.119Z,38.28
2016-08-24T11:09:21.325Z,38.36
2016-08-24T11:10:34.731Z,38.2
2016-08-24T11:11:47.758Z,38.1
2016-08-24T11:13:00.782Z,38.09
2016-08-24T11:14:13.998Z,38.06
2016-08-24T11:15:27.004Z,38.09
2016-08-24T11:16:40.014Z,38.15
2016-08-24T11:17:53.029Z,38.13
2016-08-24T11:19:06.045Z,37.98
2016-08-24T11:20:19.058Z,37.84
2016-08-24T11:21:32.062Z,37.79
2016-08-24T11:22:45.068Z,37.59
2016-08-24T11:23:58.068Z,37.59
2016-08-24T11:25:11.068Z,37.59
2016-08-24T11:26:24.075Z,37.45
2016-08-24T11:27:37.086Z,37.62
2016-08-24T11:28:50.093Z,37.49
2016-08-24T11:30:03.099Z,37.44
2016-08-24T11:31:16.098Z,37.66
2016-08-24T11:32:29.099Z,37.81
2016-08-24T11:33:42.115Z,37.61
2016-08-24T11:34:55.112Z,37.56
2016-08-24T11:36:08.329Z,37.44
2016-08-24T11:37:21.324Z,37.34
2016-08-24T11:38:34.328Z,37.3
2016-08-24T11:39:47.340Z,37.3
2016-08-24T11:41:00.386Z,37.22
2016-08-24T11:42:13.434Z,36.99
2016-08-24T11:43:26.857Z,36.93
2016-08-24T11:44:39.858Z,37
2016-08-24T11:45:52.867Z,37.07
2016-08-24T11:47:05.873Z,37.18
2016-08-24T11:48:19.094Z,37.29
2016-08-24T11:49:32.106Z,37.49
2016-08-24T11:50:45.127Z,37.42
2016-08-24T11:51:58.128Z,37.36
2016-08-24T11:53:11.143Z,37.45
2016-08-24T11:54:24.158Z,37.42
2016-08-24T11:55:37.174Z,37.36
2016-08-24T11:56:50.181Z,37.3
2016-08-24T11:58:03.192Z,37.22
2016-08-24T11:59:16.195Z,37.19
2016-08-24T12:00:29.205Z,37.26
2016-08-24T12:01:42.218Z,37.24
2016-08-24T12:02:55.423Z,37.18
2016-08-24T12:04:08.626Z,37.24
2016-08-24T12:05:21.824Z,37.22
2016-08-24T12:06:34.846Z,37.29
2016-08-24T12:07:47.843Z,37.33
2016-08-24T12:09:00.847Z,37.27
2016-08-24T12:10:13.871Z,37.31
2016-08-24T12:11:26.878Z,37.39
2016-08-24T12:12:39.894Z,37.33
2016-08-24T12:13:52.907Z,37.33
2016-08-24T12:15:05.905Z,37.19
2016-08-24T12:16:19.116Z,37.17
2016-08-24T12:17:32.112Z,37.12
2016-08-24T12:18:45.115Z,37.02
2016-08-24T12:19:58.122Z,36.81
2016-08-24T12:21:11.127Z,36.75
2016-08-24T12:22:24.133Z,36.8
2016-08-24T12:23:37.342Z,36.81
2016-08-24T12:24:50.337Z,36.58
2016-08-24T12:26:03.361Z,36.49
2016-08-24T12:27:16.569Z,36.37
2016-08-24T12:28:29.562Z,36.34
2016-08-24T12:29:42.565Z,36.21
2016-08-24T12:30:55.572Z,36.22
2016-08-24T12:32:08.564Z,36.15
2016-08-24T12:33:21.570Z,36.12
2016-08-24T12:34:34.590Z,36.02
2016-08-24T12:35:47.598Z,36.04
2016-08-24T12:37:00.803Z,36.04
2016-08-24T12:38:13.817Z,36.09
2016-08-24T12:39:26.828Z,36.08
2016-08-24T12:40:39.832Z,36.36
2016-08-24T12:41:53.040Z,36.09
2016-08-24T12:43:06.104Z,36.14
2016-08-24T12:44:19.113Z,35.9
2016-08-24T12:45:32.120Z,35.84
2016-08-24T12:46:45.321Z,35.8
2016-08-24T12:47:58.324Z,35.92
2016-08-24T12:49:11.323Z,36.01
2016-08-24T12:50:24.331Z,36.12
2016-08-24T12:51:37.336Z,36.21
2016-08-24T12:52:50.347Z,36.05
2016-08-24T12:54:03.352Z,36.01
2016-08-24T12:55:16.550Z,35.95
2016-08-24T12:56:29.740Z,35.84
2016-08-24T12:57:42.753Z,35.64
2016-08-24T12:58:55.754Z,35.65
2016-08-24T13:00:08.757Z,35.62
2016-08-24T13:01:21.757Z,35.61
2016-08-24T13:02:34.774Z,35.67
2016-08-24T13:03:47.984Z,35.76
2016-08-24T13:05:00.987Z,35.6
2016-08-24T13:06:13.988Z,35.45
2016-08-24T13:07:26.982Z,35.43
2016-08-24T13:08:39.980Z,35.3
2016-08-24T13:09:52.993Z,35.27
2016-08-24T13:11:05.986Z,35.09
2016-08-24T13:12:18.985Z,35.11
2016-08-24T13:13:31.997Z,35.02
2016-08-24T13:14:44.996Z,34.96
2016-08-24T13:15:57.995Z,35.01
2016-08-24T13:17:10.992Z,35.04
2016-08-24T13:18:23.992Z,34.78
2016-08-24T13:19:36.999Z,34.69
2016-08-24T13:20:49.997Z,34.56
2016-08-24T13:22:02.996Z,34.52
2016-08-24T13:23:15.992Z,34.48
2016-08-24T13:24:29.192Z,34.4
2016-08-24T13:25:42.188Z,34.3
2016-08-24T13:26:55.189Z,34.33
2016-08-24T13:28:08.193Z,34.33
2016-08-24T13:29:21.201Z,34.32
2016-08-24T13:30:34.402Z,34.05
2016-08-24T13:31:47.397Z,34.12
2016-08-24T13:33:00.399Z,34.06
2016-08-24T13:34:13.598Z,34.02
2016-08-24T13:35:26.599Z,33.89
2016-08-24T13:36:39.825Z,33.83
2016-08-24T13:37:53.226Z,33.74
2016-08-24T13:39:06.226Z,33.78
2016-08-24T13:40:19.228Z,33.89
2016-08-24T13:41:32.234Z,33.93
2016-08-24T13:42:45.644Z,33.96
2016-08-24T13:43:58.695Z,33.87
2016-08-24T13:45:11.696Z,33.92
2016-08-24T13:46:24.698Z,33.96
2016-08-24T13:47:37.697Z,34.1
2016-08-24T13:48:50.700Z,34.08
2016-08-24T13:50:03.694Z,34.06
2016-08-24T13:51:16.693Z,34.12
2016-08-24T13:52:29.693Z,34.18
2016-08-24T13:53:42.685Z,34.19
2016-08-24T13:54:55.698Z,34.21
2016-08-24T13:56:08.895Z,34.12
2016-08-24T13:57:21.900Z,34.1
2016-08-24T13:58:35.101Z,34.1
2016-08-24T13:59:48.302Z,34
2016-08-24T14:01:01.522Z,33.97
2016-08-24T14:02:14.521Z,34.03
2016-08-24T14:03:27.522Z,33.92
2016-08-24T14:04:40.535Z,33.92
2016-08-24T14:05:53.537Z,34.02
2016-08-24T14:07:06.544Z,33.89
2016-08-24T14:08:19.545Z,33.68
2016-08-24T14:09:32.539Z,33.62
2016-08-24T14:10:45.541Z,33.63
2016-08-24T14:11:58.542Z,33.63
2016-08-24T14:13:11.548Z,33.63
2016-08-24T14:14:24.551Z,33.73
2016-08-24T14:15:37.543Z,33.61
2016-08-24T14:16:50.729Z,33.63
2016-08-24T14:18:03.722Z,33.56
2016-08-24T14:19:16.921Z,33.61
2016-08-24T14:20:29.932Z,33.56
2016-08-24T14:21:42.943Z,33.62
2016-08-24T14:22:55.984Z,33.58
2016-08-24T14:24:08.971Z,33.63
2016-08-24T14:25:21.976Z,33.63
2016-08-24T14:26:35.176Z,33.61
2016-08-24T14:27:48.176Z,33.74
2016-08-24T14:29:01.185Z,33.75
2016-08-24T14:30:14.376Z,33.71
2016-08-24T14:31:27.372Z,33.65
2016-08-24T14:32:40.572Z,33.66
2016-08-24T14:33:53.765Z,33.65
2016-08-24T14:35:06.763Z,33.62
2016-08-24T14:36:19.758Z,33.58
2016-08-24T14:37:32.745Z,33.63
2016-08-24T14:38:45.937Z,33.61
2016-08-24T14:39:58.930Z,33.62
2016-08-24T14:41:11.948Z,33.46
2016-08-24T14:42:24.934Z,33.4
2016-08-24T14:43:37.935Z,33.39
2016-08-24T14:44:50.977Z,33.39
2016-08-24T14:46:03.984Z,33.39
2016-08-24T14:47:16.981Z,33.44
2016-08-24T14:48:30.175Z,33.44
2016-08-24T14:49:43.171Z,33.4
2016-08-24T14:50:56.161Z,33.36
2016-08-24T14:52:09.159Z,33.43
2016-08-24T14:53:22.160Z,33.23
2016-08-24T14:54:35.163Z,33.29
2016-08-24T14:55:48.159Z,33.32
2016-08-24T14:57:01.155Z,33.18
2016-08-24T14:58:14.174Z,33.17
2016-08-24T14:59:27.168Z,33.24
2016-08-24T15:00:40.158Z,33.16
2016-08-24T15:01:53.146Z,33.21
2016-08-24T15:03:06.143Z,33.16
2016-08-24T15:04:19.147Z,33.17
2016-08-24T15:05:32.145Z,33.06
2016-08-24T15:06:45.146Z,32.99
2016-08-24T15:07:58.142Z,33.01
2016-08-24T15:09:11.136Z,32.94
2016-08-24T15:10:24.336Z,32.89
2016-08-24T15:11:37.347Z,32.93
2016-08-24T15:12:50.345Z,32.69
2016-08-24T15:14:03.752Z,32.67
2016-08-24T15:15:16.744Z,32.67
2016-08-24T15:16:29.929Z,32.57
2016-08-24T15:17:43.118Z,32.57
2016-08-24T15:18:56.115Z,32.53
2016-08-24T15:20:09.114Z,32.46
2016-08-24T15:21:22.118Z,32.5
2016-08-24T15:22:35.120Z,32.46
2016-08-24T15:23:48.112Z,32.5
2016-08-24T15:25:01.321Z,32.54
2016-08-24T15:26:14.325Z,32.49
2016-08-24T15:27:27.316Z,32.49
2016-08-24T15:28:40.515Z,32.45
2016-08-24T15:29:53.521Z,32.35
2016-08-24T15:31:06.730Z,32.34
2016-08-24T15:32:19.731Z,32.31
2016-08-24T15:33:32.736Z,32.37
2016-08-24T15:34:45.739Z,32.34
2016-08-24T15:35:58.940Z,32.24
2016-08-24T15:37:11.936Z,32.2
2016-08-24T15:38:24.938Z,32.13
2016-08-24T15:39:37.934Z,32.15
2016-08-24T15:40:50.931Z,32.09
2016-08-24T15:42:03.926Z,32.09
2016-08-24T15:43:17.123Z,32
2016-08-24T15:44:30.118Z,31.97